sensor_id;sensor_type;location;lat;lon;timestamp;pressure;altitude;pressure_sealevel;temperature;humidity
65131;BME280;51709;54.912;8.316;2022-11-27T00:02:34;102424.59;;;7.39;86.68
65131;BME280;51709;54.912;8.316;2022-11-27T00:08:00;102427.94;;;7.35;86.78
65131;BME280;51709;54.912;8.316;2022-11-27T00:13:21;102416.81;;;7.33;86.72
65131;BME280;51709;54.912;8.316;2022-11-27T00:18:43;102432.88;;;7.27;86.97
65131;BME280;51709;54.912;8.316;2022-11-27T00:24:07;102420.06;;;7.24;86.95
65131;BME280;51709;54.912;8.316;2022-11-27T00:29:28;102425.06;;;7.18;87.11
65131;BME280;51709;54.912;8.316;2022-11-27T00:34:50;102421.63;;;7.16;87.07
65131;BME280;51709;54.912;8.316;2022-11-27T00:40:11;102417.28;;;7.12;86.84
65131;BME280;51709;54.912;8.316;2022-11-27T00:45:32;102425.69;;;7.06;87.14
65131;BME280;51709;54.912;8.316;2022-11-27T00:51:01;102422.03;;;6.93;87.35
65131;BME280;51709;54.912;8.316;2022-11-27T00:56:27;102407.69;;;6.98;87.30
65131;BME280;51709;54.912;8.316;2022-11-27T01:01:48;102403.34;;;6.96;87.09
65131;BME280;51709;54.912;8.316;2022-11-27T01:07:09;102397.38;;;6.93;87.23
65131;BME280;51709;54.912;8.316;2022-11-27T01:12:30;102388.84;;;6.93;87.23
65131;BME280;51709;54.912;8.316;2022-11-27T01:17:51;102386.22;;;6.88;87.10
65131;BME280;51709;54.912;8.316;2022-11-27T01:23:11;102392.97;;;6.85;87.21
65131;BME280;51709;54.912;8.316;2022-11-27T01:28:32;102388.59;;;6.79;87.34
65131;BME280;51709;54.912;8.316;2022-11-27T01:33:56;102386.06;;;6.81;87.40
65131;BME280;51709;54.912;8.316;2022-11-27T01:39:19;102376.66;;;6.78;87.30
65131;BME280;51709;54.912;8.316;2022-11-27T01:44:48;102374.13;;;6.78;87.28
65131;BME280;51709;54.912;8.316;2022-11-27T01:50:13;102379.97;;;6.72;87.20
65131;BME280;51709;54.912;8.316;2022-11-27T01:55:41;102373.88;;;6.66;87.44
65131;BME280;51709;54.912;8.316;2022-11-27T02:01:04;102366.22;;;6.66;87.33
65131;BME280;51709;54.912;8.316;2022-11-27T02:06:27;102368.84;;;6.70;87.39
65131;BME280;51709;54.912;8.316;2022-11-27T02:11:56;102361.19;;;6.69;87.30
65131;BME280;51709;54.912;8.316;2022-11-27T02:17:24;102365.50;;;6.73;87.19
65131;BME280;51709;54.912;8.316;2022-11-27T02:22:59;102366.31;;;6.72;87.19
65131;BME280;51709;54.912;8.316;2022-11-27T02:39:55;102349.16;;;6.63;87.41
65131;BME280;51709;54.912;8.316;2022-11-27T02:45:23;102346.56;;;6.61;87.35
65131;BME280;51709;54.912;8.316;2022-11-27T02:50:45;102330.41;;;6.61;87.51
65131;BME280;51709;54.912;8.316;2022-11-27T02:56:11;102331.19;;;6.57;87.56
65131;BME280;51709;54.912;8.316;2022-11-27T03:01:37;102314.13;;;6.54;87.57
65131;BME280;51709;54.912;8.316;2022-11-27T03:07:05;102310.63;;;6.49;87.59
65131;BME280;51709;54.912;8.316;2022-11-27T03:12:27;102316.53;;;6.48;87.54
65131;BME280;51709;54.912;8.316;2022-11-27T03:17:58;102302.06;;;6.47;87.78
65131;BME280;51709;54.912;8.316;2022-11-27T03:23:24;102303.03;;;6.54;87.47
65131;BME280;51709;54.912;8.316;2022-11-27T03:28:46;102294.56;;;6.55;87.45
65131;BME280;51709;54.912;8.316;2022-11-27T03:34:07;102302.28;;;6.56;87.56
65131;BME280;51709;54.912;8.316;2022-11-27T03:39:29;102301.47;;;6.59;87.23
65131;BME280;51709;54.912;8.316;2022-11-27T03:45:07;102285.16;;;6.51;87.55
65131;BME280;51709;54.912;8.316;2022-11-27T03:50:44;102278.28;;;6.48;87.58
65131;BME280;51709;54.912;8.316;2022-11-27T03:56:17;102258.69;;;6.44;87.77
65131;BME280;51709;54.912;8.316;2022-11-27T04:01:41;102252.63;;;6.39;87.48
65131;BME280;51709;54.912;8.316;2022-11-27T04:07:02;102256.81;;;6.37;87.78
65131;BME280;51709;54.912;8.316;2022-11-27T04:12:22;102260.19;;;6.34;87.84
65131;BME280;51709;54.912;8.316;2022-11-27T04:17:43;102255.06;;;6.32;87.66
65131;BME280;51709;54.912;8.316;2022-11-27T04:23:04;102236.31;;;6.30;87.89
65131;BME280;51709;54.912;8.316;2022-11-27T04:28:26;102231.13;;;6.26;87.95
65131;BME280;51709;54.912;8.316;2022-11-27T04:33:48;102220.03;;;6.22;87.91
65131;BME280;51709;54.912;8.316;2022-11-27T04:39:08;102210.56;;;6.16;87.92
65131;BME280;51709;54.912;8.316;2022-11-27T04:44:30;102225.75;;;6.12;87.90
65131;BME280;51709;54.912;8.316;2022-11-27T04:49:51;102225.63;;;6.06;88.05
65131;BME280;51709;54.912;8.316;2022-11-27T04:55:12;102218.75;;;6.01;88.08
65131;BME280;51709;54.912;8.316;2022-11-27T05:00:33;102210.94;;;5.94;88.23
65131;BME280;51709;54.912;8.316;2022-11-27T05:05:57;102209.13;;;5.90;88.18
65131;BME280;51709;54.912;8.316;2022-11-27T05:11:18;102220.06;;;5.84;88.17
65131;BME280;51709;54.912;8.316;2022-11-27T05:16:39;102213.09;;;5.75;88.15
65131;BME280;51709;54.912;8.316;2022-11-27T05:22:00;102204.44;;;5.68;88.25
65131;BME280;51709;54.912;8.316;2022-11-27T05:27:21;102197.44;;;5.58;88.51
65131;BME280;51709;54.912;8.316;2022-11-27T05:32:41;102210.81;;;5.49;88.43
65131;BME280;51709;54.912;8.316;2022-11-27T05:38:02;102186.16;;;5.47;88.51
65131;BME280;51709;54.912;8.316;2022-11-27T05:43:23;102200.59;;;5.46;88.47
65131;BME280;51709;54.912;8.316;2022-11-27T05:48:48;102196.25;;;5.42;88.57
65131;BME280;51709;54.912;8.316;2022-11-27T05:54:09;102184.34;;;5.41;88.72
65131;BME280;51709;54.912;8.316;2022-11-27T05:59:30;102171.59;;;5.39;88.52
65131;BME280;51709;54.912;8.316;2022-11-27T06:04:51;102169.81;;;5.37;88.39
65131;BME280;51709;54.912;8.316;2022-11-27T06:10:12;102162.06;;;5.31;88.45
65131;BME280;51709;54.912;8.316;2022-11-27T06:15:33;102170.34;;;5.23;88.54
65131;BME280;51709;54.912;8.316;2022-11-27T06:20:55;102188.91;;;5.18;88.63
65131;BME280;51709;54.912;8.316;2022-11-27T06:26:20;102163.41;;;5.16;88.73
65131;BME280;51709;54.912;8.316;2022-11-27T06:31:41;102154.16;;;5.18;88.50
65131;BME280;51709;54.912;8.316;2022-11-27T06:37:02;102166.78;;;5.15;88.49
65131;BME280;51709;54.912;8.316;2022-11-27T06:42:22;102154.03;;;5.14;88.61
65131;BME280;51709;54.912;8.316;2022-11-27T06:47:43;102144.69;;;5.13;88.65
65131;BME280;51709;54.912;8.316;2022-11-27T06:53:04;102148.94;;;5.14;88.57
65131;BME280;51709;54.912;8.316;2022-11-27T06:58:25;102143.06;;;5.16;88.57
65131;BME280;51709;54.912;8.316;2022-11-27T07:03:50;102134.63;;;5.19;88.42
65131;BME280;51709;54.912;8.316;2022-11-27T07:09:11;102149.06;;;5.20;88.46
65131;BME280;51709;54.912;8.316;2022-11-27T07:14:32;102137.25;;;5.22;88.50
65131;BME280;51709;54.912;8.316;2022-11-27T07:19:52;102126.25;;;5.23;88.24
65131;BME280;51709;54.912;8.316;2022-11-27T07:25:13;102127.97;;;5.24;88.41
65131;BME280;51709;54.912;8.316;2022-11-27T07:30:35;102126.25;;;5.23;88.45
65131;BME280;51709;54.912;8.316;2022-11-27T07:35:59;102148.22;;;5.19;88.53
65131;BME280;51709;54.912;8.316;2022-11-27T07:41:20;102149.13;;;5.21;88.40
65131;BME280;51709;54.912;8.316;2022-11-27T07:46:40;102143.22;;;5.22;88.48
65131;BME280;51709;54.912;8.316;2022-11-27T07:52:01;102145.81;;;5.25;88.40
65131;BME280;51709;54.912;8.316;2022-11-27T07:57:22;102126.25;;;5.24;88.38
65131;BME280;51709;54.912;8.316;2022-11-27T08:02:42;102115.34;;;5.29;88.36
65131;BME280;51709;54.912;8.316;2022-11-27T08:08:03;102106.13;;;5.34;88.20
65131;BME280;51709;54.912;8.316;2022-11-27T08:13:24;102100.31;;;5.39;88.16
65131;BME280;51709;54.912;8.316;2022-11-27T08:18:45;102083.25;;;5.37;88.05
65131;BME280;51709;54.912;8.316;2022-11-27T08:24:05;102080.84;;;5.43;87.96
65131;BME280;51709;54.912;8.316;2022-11-27T08:29:26;102075.28;;;5.61;87.25
65131;BME280;51709;54.912;8.316;2022-11-27T08:34:53;102076.25;;;5.68;86.91
65131;BME280;51709;54.912;8.316;2022-11-27T08:40:15;102066.81;;;5.62;87.13
65131;BME280;51709;54.912;8.316;2022-11-27T08:45:38;102069.59;;;5.75;86.71
65131;BME280;51709;54.912;8.316;2022-11-27T08:51:07;102091.63;;;5.73;86.56
65131;BME280;51709;54.912;8.316;2022-11-27T08:56:28;102081.22;;;5.62;86.78
65131;BME280;51709;54.912;8.316;2022-11-27T09:01:49;102092.19;;;5.58;87.00
65131;BME280;51709;54.912;8.316;2022-11-27T09:07:10;102088.44;;;5.42;87.32
65131;BME280;51709;54.912;8.316;2022-11-27T09:12:34;102082.25;;;5.29;87.58
65131;BME280;51709;54.912;8.316;2022-11-27T09:18:02;102101.63;;;5.23;87.65
65131;BME280;51709;54.912;8.316;2022-11-27T09:23:23;102110.16;;;5.25;87.66
65131;BME280;51709;54.912;8.316;2022-11-27T09:28:44;102105.81;;;5.20;87.45
65131;BME280;51709;54.912;8.316;2022-11-27T09:34:05;102088.06;;;5.23;87.31
65131;BME280;51709;54.912;8.316;2022-11-27T09:39:28;102096.56;;;5.23;87.33
65131;BME280;51709;54.912;8.316;2022-11-27T09:44:56;102090.13;;;5.39;86.63
65131;BME280;51709;54.912;8.316;2022-11-27T09:50:25;102097.75;;;5.39;86.42
65131;BME280;51709;54.912;8.316;2022-11-27T09:55:50;102091.84;;;5.40;86.45
65131;BME280;51709;54.912;8.316;2022-11-27T10:01:16;102082.41;;;5.35;86.54
65131;BME280;51709;54.912;8.316;2022-11-27T10:18:02;102076.59;;;5.42;86.11
65131;BME280;51709;54.912;8.316;2022-11-27T10:29:26;102071.81;;;5.58;85.55
65131;BME280;51709;54.912;8.316;2022-11-27T10:35:03;102068.38;;;5.57;85.26
65131;BME280;51709;54.912;8.316;2022-11-27T10:40:33;102064.94;;;5.53;85.25
65131;BME280;51709;54.912;8.316;2022-11-27T10:46:01;102069.88;;;5.46;85.49
65131;BME280;51709;54.912;8.316;2022-11-27T10:51:31;102068.16;;;5.45;85.49
65131;BME280;51709;54.912;8.316;2022-11-27T11:02:37;102053.53;;;5.36;85.68
65131;BME280;51709;54.912;8.316;2022-11-27T11:08:18;102039.16;;;5.38;85.52
65131;BME280;51709;54.912;8.316;2022-11-27T11:19:00;102016.22;;;5.36;85.54
65131;BME280;51709;54.912;8.316;2022-11-27T11:29:51;102001.78;;;5.35;85.47
65131;BME280;51709;54.912;8.316;2022-11-27T11:35:28;101999.31;;;5.38;85.38
65131;BME280;51709;54.912;8.316;2022-11-27T11:40:59;101994.97;;;5.34;85.53
65131;BME280;51709;54.912;8.316;2022-11-27T11:46:24;101985.09;;;5.51;84.98
65131;BME280;51709;54.912;8.316;2022-11-27T12:10:11;101958.59;;;5.40;85.32
65131;BME280;51709;54.912;8.316;2022-11-27T12:15:39;101964.50;;;5.39;85.26
65131;BME280;51709;54.912;8.316;2022-11-27T12:21:14;101933.16;;;5.42;85.09
65131;BME280;51709;54.912;8.316;2022-11-27T12:27:01;101918.00;;;5.49;84.98
65131;BME280;51709;54.912;8.316;2022-11-27T12:43:51;101919.72;;;5.49;85.09
65131;BME280;51709;54.912;8.316;2022-11-27T12:49:20;101914.63;;;5.49;85.21
65131;BME280;51709;54.912;8.316;2022-11-27T12:54:56;101895.16;;;5.51;85.17
65131;BME280;51709;54.912;8.316;2022-11-27T13:00:21;101896.81;;;5.50;85.06
65131;BME280;51709;54.912;8.316;2022-11-27T13:05:46;101904.44;;;5.50;85.19
65131;BME280;51709;54.912;8.316;2022-11-27T13:11:11;101891.63;;;5.44;85.31
65131;BME280;51709;54.912;8.316;2022-11-27T13:16:41;101884.00;;;5.44;85.27
65131;BME280;51709;54.912;8.316;2022-11-27T13:22:10;101890.00;;;5.49;85.10
65131;BME280;51709;54.912;8.316;2022-11-27T13:27:34;101880.78;;;5.56;84.93
65131;BME280;51709;54.912;8.316;2022-11-27T13:32:57;101889.28;;;5.57;84.85
65131;BME280;51709;54.912;8.316;2022-11-27T13:38:23;101882.50;;;5.55;84.96
65131;BME280;51709;54.912;8.316;2022-11-27T13:43:45;101877.41;;;5.57;84.93
65131;BME280;51709;54.912;8.316;2022-11-27T13:49:07;101874.03;;;5.60;84.88
65131;BME280;51709;54.912;8.316;2022-11-27T13:54:27;101868.94;;;5.57;84.99
65131;BME280;51709;54.912;8.316;2022-11-27T14:00:10;101858.56;;;5.47;85.38
65131;BME280;51709;54.912;8.316;2022-11-27T14:05:43;101859.44;;;5.46;85.25
65131;BME280;51709;54.912;8.316;2022-11-27T14:11:09;101845.00;;;5.47;85.10
65131;BME280;51709;54.912;8.316;2022-11-27T14:16:33;101842.44;;;5.45;85.09
65131;BME280;51709;54.912;8.316;2022-11-27T14:21:55;101848.31;;;5.43;85.19
65131;BME280;51709;54.912;8.316;2022-11-27T14:27:20;101813.47;;;5.40;85.23
65131;BME280;51709;54.912;8.316;2022-11-27T14:32:41;101824.44;;;5.36;85.34
65131;BME280;51709;54.912;8.316;2022-11-27T14:38:14;101833.72;;;5.32;85.43
65131;BME280;51709;54.912;8.316;2022-11-27T14:43:35;101843.94;;;5.34;85.30
65131;BME280;51709;54.912;8.316;2022-11-27T14:48:55;101834.53;;;5.30;85.36
65131;BME280;51709;54.912;8.316;2022-11-27T14:54:24;101829.38;;;5.25;85.47
65131;BME280;51709;54.912;8.316;2022-11-27T14:59:45;101809.75;;;5.19;85.62
65131;BME280;51709;54.912;8.316;2022-11-27T15:05:16;101806.38;;;5.20;85.48
65131;BME280;51709;54.912;8.316;2022-11-27T15:10:38;101809.69;;;5.16;85.30
65131;BME280;51709;54.912;8.316;2022-11-27T15:16:04;101795.19;;;5.12;85.50
65131;BME280;51709;54.912;8.316;2022-11-27T15:21:26;101798.50;;;5.06;85.40
65131;BME280;51709;54.912;8.316;2022-11-27T15:26:48;101808.66;;;5.06;85.56
65131;BME280;51709;54.912;8.316;2022-11-27T15:32:22;101789.06;;;4.99;85.86
65131;BME280;51709;54.912;8.316;2022-11-27T15:37:47;101784.84;;;5.01;85.83
65131;BME280;51709;54.912;8.316;2022-11-27T15:43:12;101766.97;;;4.97;85.72
65131;BME280;51709;54.912;8.316;2022-11-27T15:48:34;101763.63;;;4.99;85.75
65131;BME280;51709;54.912;8.316;2022-11-27T15:53:54;101755.91;;;4.96;85.77
65131;BME280;51709;54.912;8.316;2022-11-27T15:59:15;101772.91;;;4.97;85.59
65131;BME280;51709;54.912;8.316;2022-11-27T16:04:37;101756.78;;;4.97;85.71
65131;BME280;51709;54.912;8.316;2022-11-27T16:09:59;101772.00;;;4.95;85.78
65131;BME280;51709;54.912;8.316;2022-11-27T16:15:19;101739.78;;;4.94;85.73
65131;BME280;51709;54.912;8.316;2022-11-27T16:20:44;101741.50;;;4.95;85.66
65131;BME280;51709;54.912;8.316;2022-11-27T16:26:04;101733.84;;;4.93;85.66
65131;BME280;51709;54.912;8.316;2022-11-27T16:31:25;101727.91;;;4.93;85.83
65131;BME280;51709;54.912;8.316;2022-11-27T16:36:46;101721.94;;;4.91;85.81
65131;BME280;51709;54.912;8.316;2022-11-27T16:42:08;101730.41;;;4.91;85.76
65131;BME280;51709;54.912;8.316;2022-11-27T16:47:28;101716.84;;;4.91;85.81
65131;BME280;51709;54.912;8.316;2022-11-27T16:52:53;101710.06;;;4.91;85.87
65131;BME280;51709;54.912;8.316;2022-11-27T16:58:16;101697.28;;;4.87;86.00
65131;BME280;51709;54.912;8.316;2022-11-27T17:03:37;101699.00;;;4.88;86.00
65131;BME280;51709;54.912;8.316;2022-11-27T17:08:59;101699.81;;;4.87;85.91
65131;BME280;51709;54.912;8.316;2022-11-27T17:14:20;101688.00;;;4.89;86.03
65131;BME280;51709;54.912;8.316;2022-11-27T17:19:41;101679.53;;;4.91;85.89
65131;BME280;51709;54.912;8.316;2022-11-27T17:25:03;101687.09;;;4.85;86.05
65131;BME280;51709;54.912;8.316;2022-11-27T17:30:25;101690.50;;;4.87;85.99
65131;BME280;51709;54.912;8.316;2022-11-27T17:35:45;101700.72;;;4.90;85.98
65131;BME280;51709;54.912;8.316;2022-11-27T17:41:11;101687.97;;;4.87;85.93
65131;BME280;51709;54.912;8.316;2022-11-27T17:46:33;101677.81;;;4.87;85.99
65131;BME280;51709;54.912;8.316;2022-11-27T17:51:55;101674.38;;;4.87;86.05
65131;BME280;51709;54.912;8.316;2022-11-27T17:57:24;101662.53;;;4.87;86.21
65131;BME280;51709;54.912;8.316;2022-11-27T18:02:44;101656.63;;;4.90;85.99
65131;BME280;51709;54.912;8.316;2022-11-27T18:08:06;101663.44;;;4.91;86.08
65131;BME280;51709;54.912;8.316;2022-11-27T18:13:27;101653.22;;;4.89;86.09
65131;BME280;51709;54.912;8.316;2022-11-27T18:26:48;101646.53;;;4.93;86.12
65131;BME280;51709;54.912;8.316;2022-11-27T18:32:29;101642.28;;;4.95;86.09
65131;BME280;51709;54.912;8.316;2022-11-27T18:37:49;101635.53;;;4.96;86.03
65131;BME280;51709;54.912;8.316;2022-11-27T18:43:10;101628.78;;;4.98;86.17
65131;BME280;51709;54.912;8.316;2022-11-27T18:48:31;101622.03;;;5.01;86.06
65131;BME280;51709;54.912;8.316;2022-11-27T18:53:52;101619.56;;;5.04;85.91
65131;BME280;51709;54.912;8.316;2022-11-27T18:59:13;101628.03;;;5.05;86.03
65131;BME280;51709;54.912;8.316;2022-11-27T19:04:35;101615.28;;;5.03;86.19
65131;BME280;51709;54.912;8.316;2022-11-27T19:09:57;101625.50;;;5.06;86.16
65131;BME280;51709;54.912;8.316;2022-11-27T19:15:17;101615.38;;;5.09;86.28
65131;BME280;51709;54.912;8.316;2022-11-27T19:20:38;101621.31;;;5.10;86.15
65131;BME280;51709;54.912;8.316;2022-11-27T19:26:10;101619.63;;;5.09;86.22
65131;BME280;51709;54.912;8.316;2022-11-27T19:31:31;101603.53;;;5.13;86.46
65131;BME280;51709;54.912;8.316;2022-11-27T19:36:57;101597.66;;;5.17;86.06
65131;BME280;51709;54.912;8.316;2022-11-27T19:42:18;101596.78;;;5.14;86.23
65131;BME280;51709;54.912;8.316;2022-11-27T19:47:40;101597.56;;;5.09;86.33
65131;BME280;51709;54.912;8.316;2022-11-27T19:53:00;101596.72;;;5.11;86.37
65131;BME280;51709;54.912;8.316;2022-11-27T19:58:24;101594.16;;;5.09;86.41
65131;BME280;51709;54.912;8.316;2022-11-27T20:03:45;101571.22;;;5.07;86.40
65131;BME280;51709;54.912;8.316;2022-11-27T20:09:06;101568.72;;;5.09;86.42
65131;BME280;51709;54.912;8.316;2022-11-27T20:14:27;101567.94;;;5.15;86.25
65131;BME280;51709;54.912;8.316;2022-11-27T20:19:49;101562.00;;;5.14;86.34
65131;BME280;51709;54.912;8.316;2022-11-27T20:25:11;101549.31;;;5.16;86.40
65131;BME280;51709;54.912;8.316;2022-11-27T20:30:40;101545.94;;;5.20;86.26
65131;BME280;51709;54.912;8.316;2022-11-27T20:36:09;101537.44;;;5.18;86.21
65131;BME280;51709;54.912;8.316;2022-11-27T20:41:30;101534.94;;;5.19;86.25
65131;BME280;51709;54.912;8.316;2022-11-27T20:46:50;101529.00;;;5.20;86.48
65131;BME280;51709;54.912;8.316;2022-11-27T20:52:12;101527.34;;;5.24;86.15
65131;BME280;51709;54.912;8.316;2022-11-27T20:57:33;101519.72;;;5.24;86.31
65131;BME280;51709;54.912;8.316;2022-11-27T21:02:55;101522.31;;;5.27;86.31
65131;BME280;51709;54.912;8.316;2022-11-27T21:08:15;101516.41;;;5.31;86.23
65131;BME280;51709;54.912;8.316;2022-11-27T21:13:36;101493.53;;;5.33;86.29
65131;BME280;51709;54.912;8.316;2022-11-27T21:18:59;101493.50;;;5.31;86.35
65131;BME280;51709;54.912;8.316;2022-11-27T21:24:21;101488.44;;;5.34;86.34
65131;BME280;51709;54.912;8.316;2022-11-27T21:29:42;101491.00;;;5.34;86.53
65131;BME280;51709;54.912;8.316;2022-11-27T21:35:03;101485.94;;;5.39;86.40
65131;BME280;51709;54.912;8.316;2022-11-27T21:40:24;101472.38;;;5.38;86.37
65131;BME280;51709;54.912;8.316;2022-11-27T21:45:45;101475.72;;;5.36;86.47
65131;BME280;51709;54.912;8.316;2022-11-27T21:51:07;101470.63;;;5.34;86.48
65131;BME280;51709;54.912;8.316;2022-11-27T21:56:32;101465.59;;;5.39;86.49
65131;BME280;51709;54.912;8.316;2022-11-27T22:01:57;101452.84;;;5.37;86.56
65131;BME280;51709;54.912;8.316;2022-11-27T22:07:18;101433.31;;;5.36;86.53
65131;BME280;51709;54.912;8.316;2022-11-27T22:12:38;101434.16;;;5.35;86.65
65131;BME280;51709;54.912;8.316;2022-11-27T22:17:59;101425.69;;;5.36;86.74
65131;BME280;51709;54.912;8.316;2022-11-27T22:23:20;101424.88;;;5.40;86.39
65131;BME280;51709;54.912;8.316;2022-11-27T22:28:41;101415.59;;;5.46;86.46
65131;BME280;51709;54.912;8.316;2022-11-27T22:34:02;101420.69;;;5.44;86.47
65131;BME280;51709;54.912;8.316;2022-11-27T22:39:23;101416.41;;;5.43;86.61
65131;BME280;51709;54.912;8.316;2022-11-27T22:44:43;101407.91;;;5.43;86.59
65131;BME280;51709;54.912;8.316;2022-11-27T22:50:05;101395.19;;;5.41;86.55
65131;BME280;51709;54.912;8.316;2022-11-27T22:55:25;101386.75;;;5.45;86.51
65131;BME280;51709;54.912;8.316;2022-11-27T23:00:53;101375.66;;;5.40;86.81
65131;BME280;51709;54.912;8.316;2022-11-27T23:06:18;101368.03;;;5.40;86.61
65131;BME280;51709;54.912;8.316;2022-11-27T23:11:39;101362.91;;;5.35;86.66
65131;BME280;51709;54.912;8.316;2022-11-27T23:17:00;101365.44;;;5.35;86.64
65131;BME280;51709;54.912;8.316;2022-11-27T23:22:21;101363.72;;;5.33;86.77
65131;BME280;51709;54.912;8.316;2022-11-27T23:27:41;101349.28;;;5.32;86.88
65131;BME280;51709;54.912;8.316;2022-11-27T23:33:03;101342.53;;;5.37;86.79
65131;BME280;51709;54.912;8.316;2022-11-27T23:38:24;101336.59;;;5.36;86.62
65131;BME280;51709;54.912;8.316;2022-11-27T23:43:45;101335.78;;;5.37;86.68
65131;BME280;51709;54.912;8.316;2022-11-27T23:49:06;101322.25;;;5.43;86.62
65131;BME280;51709;54.912;8.316;2022-11-27T23:54:27;101311.22;;;5.46;86.54
65131;BME280;51709;54.912;8.316;2022-11-27T23:59:48;101307.00;;;5.46;86.59
